sensor_id;sensor_type;location;lat;lon;timestamp;temperature;humidity
10864;DHT22;5485;37.558;126.950;2023-03-11T00:00:53;16.70;1.00
10864;DHT22;5485;37.558;126.950;2023-03-11T00:03:23;17.20;1.00
10864;DHT22;5485;37.558;126.950;2023-03-11T00:05:52;18.00;1.00
10864;DHT22;5485;37.558;126.950;2023-03-11T00:08:22;18.50;1.00
10864;DHT22;5485;37.558;126.950;2023-03-11T00:10:54;18.90;1.00
10864;DHT22;5485;37.558;126.950;2023-03-11T00:13:21;19.60;1.00
10864;DHT22;5485;37.558;126.950;2023-03-11T00:15:51;20.10;1.00
10864;DHT22;5485;37.558;126.950;2023-03-11T00:18:22;20.60;1.00
10864;DHT22;5485;37.558;126.950;2023-03-11T00:20:54;20.50;1.00
10864;DHT22;5485;37.558;126.950;2023-03-11T00:23:21;20.50;1.00
10864;DHT22;5485;37.558;126.950;2023-03-11T00:25:48;20.50;1.00
10864;DHT22;5485;37.558;126.950;2023-03-11T00:28:16;20.80;1.00
10864;DHT22;5485;37.558;126.950;2023-03-11T00:30:45;20.90;1.00
10864;DHT22;5485;37.558;126.950;2023-03-11T00:33:14;20.80;1.00
10864;DHT22;5485;37.558;126.950;2023-03-11T00:35:42;21.00;1.00
10864;DHT22;5485;37.558;126.950;2023-03-11T00:38:12;20.80;1.00
10864;DHT22;5485;37.558;126.950;2023-03-11T00:40:40;21.10;1.00
10864;DHT22;5485;37.558;126.950;2023-03-11T00:43:10;21.20;1.00
10864;DHT22;5485;37.558;126.950;2023-03-11T00:45:37;21.50;1.00
10864;DHT22;5485;37.558;126.950;2023-03-11T00:48:05;21.90;1.00
10864;DHT22;5485;37.558;126.950;2023-03-11T00:50:35;22.20;1.00
10864;DHT22;5485;37.558;126.950;2023-03-11T00:53:03;22.40;1.00
10864;DHT22;5485;37.558;126.950;2023-03-11T00:55:33;22.00;1.00
10864;DHT22;5485;37.558;126.950;2023-03-11T00:58:03;22.40;1.00
10864;DHT22;5485;37.558;126.950;2023-03-11T01:00:32;22.40;1.00
10864;DHT22;5485;37.558;126.950;2023-03-11T01:02:59;22.30;1.00
10864;DHT22;5485;37.558;126.950;2023-03-11T01:05:29;22.50;1.00
10864;DHT22;5485;37.558;126.950;2023-03-11T01:07:57;22.20;1.00
10864;DHT22;5485;37.558;126.950;2023-03-11T01:10:24;22.10;1.00
10864;DHT22;5485;37.558;126.950;2023-03-11T01:12:52;21.90;1.00
10864;DHT22;5485;37.558;126.950;2023-03-11T01:15:23;22.60;1.00
10864;DHT22;5485;37.558;126.950;2023-03-11T01:17:50;23.20;1.00
10864;DHT22;5485;37.558;126.950;2023-03-11T01:20:19;22.90;1.00
10864;DHT22;5485;37.558;126.950;2023-03-11T01:22:45;22.80;1.00
10864;DHT22;5485;37.558;126.950;2023-03-11T01:25:18;22.90;1.00
10864;DHT22;5485;37.558;126.950;2023-03-11T01:27:45;22.60;1.00
10864;DHT22;5485;37.558;126.950;2023-03-11T01:30:17;22.70;1.00
10864;DHT22;5485;37.558;126.950;2023-03-11T01:32:45;22.80;1.00
10864;DHT22;5485;37.558;126.950;2023-03-11T01:35:13;23.40;1.00
10864;DHT22;5485;37.558;126.950;2023-03-11T01:37:40;23.40;1.00
10864;DHT22;5485;37.558;126.950;2023-03-11T01:40:11;23.30;1.00
10864;DHT22;5485;37.558;126.950;2023-03-11T01:42:39;22.80;1.00
10864;DHT22;5485;37.558;126.950;2023-03-11T01:48:17;23.50;1.00
10864;DHT22;5485;37.558;126.950;2023-03-11T01:50:47;23.50;1.00
10864;DHT22;5485;37.558;126.950;2023-03-11T01:53:15;23.40;1.00
10864;DHT22;5485;37.558;126.950;2023-03-11T01:55:46;23.30;1.00
10864;DHT22;5485;37.558;126.950;2023-03-11T01:58:23;23.10;1.00
10864;DHT22;5485;37.558;126.950;2023-03-11T02:00:51;22.80;1.00
10864;DHT22;5485;37.558;126.950;2023-03-11T02:03:40;22.60;1.00
10864;DHT22;5485;37.558;126.950;2023-03-11T02:06:11;22.80;1.00
10864;DHT22;5485;37.558;126.950;2023-03-11T02:08:41;22.70;1.00
10864;DHT22;5485;37.558;126.950;2023-03-11T02:11:11;22.40;1.00
10864;DHT22;5485;37.558;126.950;2023-03-11T02:13:39;22.50;1.00
10864;DHT22;5485;37.558;126.950;2023-03-11T02:16:07;22.50;1.00
10864;DHT22;5485;37.558;126.950;2023-03-11T02:18:35;22.90;1.00
10864;DHT22;5485;37.558;126.950;2023-03-11T02:24:22;22.80;1.00
10864;DHT22;5485;37.558;126.950;2023-03-11T02:27:04;22.60;1.00
10864;DHT22;5485;37.558;126.950;2023-03-11T02:29:32;22.50;1.00
10864;DHT22;5485;37.558;126.950;2023-03-11T02:32:02;22.70;1.00
10864;DHT22;5485;37.558;126.950;2023-03-11T02:34:32;23.10;1.00
10864;DHT22;5485;37.558;126.950;2023-03-11T02:37:00;23.50;1.00
10864;DHT22;5485;37.558;126.950;2023-03-11T02:39:31;23.70;1.00
10864;DHT22;5485;37.558;126.950;2023-03-11T02:42:04;23.30;1.00
10864;DHT22;5485;37.558;126.950;2023-03-11T02:44:33;23.20;1.00
10864;DHT22;5485;37.558;126.950;2023-03-11T02:47:01;22.90;1.00
10864;DHT22;5485;37.558;126.950;2023-03-11T02:49:31;22.70;1.00
10864;DHT22;5485;37.558;126.950;2023-03-11T02:52:02;22.60;1.00
10864;DHT22;5485;37.558;126.950;2023-03-11T02:54:29;22.30;1.00
10864;DHT22;5485;37.558;126.950;2023-03-11T02:56:56;22.20;1.00
10864;DHT22;5485;37.558;126.950;2023-03-11T02:59:26;22.10;1.00
10864;DHT22;5485;37.558;126.950;2023-03-11T03:01:53;21.70;1.00
10864;DHT22;5485;37.558;126.950;2023-03-11T03:04:20;21.80;1.00
10864;DHT22;5485;37.558;126.950;2023-03-11T03:06:53;21.70;1.00
10864;DHT22;5485;37.558;126.950;2023-03-11T03:09:19;21.60;1.00
10864;DHT22;5485;37.558;126.950;2023-03-11T03:11:46;21.40;1.00
10864;DHT22;5485;37.558;126.950;2023-03-11T03:14:13;21.40;1.00
10864;DHT22;5485;37.558;126.950;2023-03-11T03:16:40;21.00;1.00
10864;DHT22;5485;37.558;126.950;2023-03-11T03:19:07;21.00;1.00
10864;DHT22;5485;37.558;126.950;2023-03-11T03:21:34;21.10;1.00
10864;DHT22;5485;37.558;126.950;2023-03-11T03:24:01;21.10;1.00
10864;DHT22;5485;37.558;126.950;2023-03-11T03:26:28;21.10;1.00
10864;DHT22;5485;37.558;126.950;2023-03-11T03:28:55;21.10;1.00
10864;DHT22;5485;37.558;126.950;2023-03-11T03:31:22;21.20;1.00
10864;DHT22;5485;37.558;126.950;2023-03-11T03:33:52;21.10;1.00
10864;DHT22;5485;37.558;126.950;2023-03-11T03:36:19;20.90;1.00
10864;DHT22;5485;37.558;126.950;2023-03-11T03:38:46;20.90;1.00
10864;DHT22;5485;37.558;126.950;2023-03-11T03:41:14;21.00;1.00
10864;DHT22;5485;37.558;126.950;2023-03-11T03:43:41;21.00;1.00
10864;DHT22;5485;37.558;126.950;2023-03-11T03:46:08;21.10;1.00
10864;DHT22;5485;37.558;126.950;2023-03-11T03:48:35;21.20;1.00
10864;DHT22;5485;37.558;126.950;2023-03-11T03:51:04;21.20;1.00
10864;DHT22;5485;37.558;126.950;2023-03-11T03:53:33;21.20;1.00
10864;DHT22;5485;37.558;126.950;2023-03-11T03:56:04;21.30;1.00
10864;DHT22;5485;37.558;126.950;2023-03-11T03:58:31;21.40;1.00
10864;DHT22;5485;37.558;126.950;2023-03-11T04:01:06;21.30;1.00
10864;DHT22;5485;37.558;126.950;2023-03-11T04:03:34;21.40;1.00
10864;DHT22;5485;37.558;126.950;2023-03-11T04:06:22;21.20;1.00
10864;DHT22;5485;37.558;126.950;2023-03-11T04:08:53;21.30;1.00
10864;DHT22;5485;37.558;126.950;2023-03-11T04:11:20;21.30;1.00
10864;DHT22;5485;37.558;126.950;2023-03-11T04:13:48;21.40;1.00
10864;DHT22;5485;37.558;126.950;2023-03-11T04:16:20;21.40;1.00
10864;DHT22;5485;37.558;126.950;2023-03-11T04:18:47;21.60;1.00
10864;DHT22;5485;37.558;126.950;2023-03-11T04:21:15;21.60;1.00
10864;DHT22;5485;37.558;126.950;2023-03-11T04:23:42;21.60;1.00
10864;DHT22;5485;37.558;126.950;2023-03-11T04:26:08;21.50;1.00
10864;DHT22;5485;37.558;126.950;2023-03-11T04:28:35;21.70;1.00
10864;DHT22;5485;37.558;126.950;2023-03-11T04:31:04;21.70;1.00
10864;DHT22;5485;37.558;126.950;2023-03-11T04:33:31;21.80;1.00
10864;DHT22;5485;37.558;126.950;2023-03-11T04:35:58;21.90;1.00
10864;DHT22;5485;37.558;126.950;2023-03-11T04:38:29;21.90;1.00
10864;DHT22;5485;37.558;126.950;2023-03-11T04:41:00;21.90;1.00
10864;DHT22;5485;37.558;126.950;2023-03-11T04:43:27;21.90;1.00
10864;DHT22;5485;37.558;126.950;2023-03-11T04:45:54;21.80;1.00
10864;DHT22;5485;37.558;126.950;2023-03-11T04:48:23;21.70;1.00
10864;DHT22;5485;37.558;126.950;2023-03-11T04:50:52;21.90;1.00
10864;DHT22;5485;37.558;126.950;2023-03-11T04:53:21;21.90;1.00
10864;DHT22;5485;37.558;126.950;2023-03-11T04:55:48;22.00;1.00
10864;DHT22;5485;37.558;126.950;2023-03-11T04:58:16;22.20;1.00
10864;DHT22;5485;37.558;126.950;2023-03-11T05:00:42;22.10;1.00
10864;DHT22;5485;37.558;126.950;2023-03-11T05:03:09;21.80;1.00
10864;DHT22;5485;37.558;126.950;2023-03-11T05:05:36;21.60;1.00
10864;DHT22;5485;37.558;126.950;2023-03-11T05:08:05;21.40;1.00
10864;DHT22;5485;37.558;126.950;2023-03-11T05:10:32;21.40;1.00
10864;DHT22;5485;37.558;126.950;2023-03-11T05:12:59;21.70;1.00
10864;DHT22;5485;37.558;126.950;2023-03-11T05:15:26;22.00;1.00
10864;DHT22;5485;37.558;126.950;2023-03-11T05:17:54;22.20;1.00
10864;DHT22;5485;37.558;126.950;2023-03-11T05:20:20;22.20;1.00
10864;DHT22;5485;37.558;126.950;2023-03-11T05:22:47;22.10;1.00
10864;DHT22;5485;37.558;126.950;2023-03-11T05:25:15;22.20;1.00
10864;DHT22;5485;37.558;126.950;2023-03-11T05:27:41;22.40;1.00
10864;DHT22;5485;37.558;126.950;2023-03-11T05:30:09;22.30;1.00
10864;DHT22;5485;37.558;126.950;2023-03-11T05:32:36;22.20;1.00
10864;DHT22;5485;37.558;126.950;2023-03-11T05:35:03;22.20;1.00
10864;DHT22;5485;37.558;126.950;2023-03-11T05:37:33;22.30;1.00
10864;DHT22;5485;37.558;126.950;2023-03-11T05:40:03;22.30;1.00
10864;DHT22;5485;37.558;126.950;2023-03-11T05:42:32;22.40;1.00
10864;DHT22;5485;37.558;126.950;2023-03-11T05:45:02;22.40;1.00
10864;DHT22;5485;37.558;126.950;2023-03-11T05:47:29;22.40;1.00
10864;DHT22;5485;37.558;126.950;2023-03-11T05:49:55;22.40;1.00
10864;DHT22;5485;37.558;126.950;2023-03-11T05:52:22;22.30;1.00
10864;DHT22;5485;37.558;126.950;2023-03-11T05:54:51;22.20;1.00
10864;DHT22;5485;37.558;126.950;2023-03-11T05:57:20;22.10;1.00
10864;DHT22;5485;37.558;126.950;2023-03-11T05:59:46;22.10;1.00
10864;DHT22;5485;37.558;126.950;2023-03-11T06:02:13;22.10;1.00
10864;DHT22;5485;37.558;126.950;2023-03-11T06:04:40;22.20;1.00
10864;DHT22;5485;37.558;126.950;2023-03-11T06:07:09;22.20;1.00
10864;DHT22;5485;37.558;126.950;2023-03-11T06:09:37;22.40;1.00
10864;DHT22;5485;37.558;126.950;2023-03-11T06:12:04;22.30;1.00
10864;DHT22;5485;37.558;126.950;2023-03-11T06:14:31;22.40;1.00
10864;DHT22;5485;37.558;126.950;2023-03-11T06:16:58;22.40;1.00
10864;DHT22;5485;37.558;126.950;2023-03-11T06:19:25;22.40;1.00
10864;DHT22;5485;37.558;126.950;2023-03-11T06:21:52;22.40;1.00
10864;DHT22;5485;37.558;126.950;2023-03-11T06:24:19;22.30;1.00
10864;DHT22;5485;37.558;126.950;2023-03-11T06:26:49;22.40;1.00
10864;DHT22;5485;37.558;126.950;2023-03-11T06:29:16;22.30;1.00
10864;DHT22;5485;37.558;126.950;2023-03-11T06:31:43;22.30;1.00
10864;DHT22;5485;37.558;126.950;2023-03-11T06:34:10;22.30;1.00
10864;DHT22;5485;37.558;126.950;2023-03-11T06:36:37;22.20;1.00
10864;DHT22;5485;37.558;126.950;2023-03-11T06:39:04;22.10;1.00
10864;DHT22;5485;37.558;126.950;2023-03-11T06:41:34;21.80;1.00
10864;DHT22;5485;37.558;126.950;2023-03-11T06:44:01;21.50;1.00
10864;DHT22;5485;37.558;126.950;2023-03-11T06:46:29;21.30;1.00
10864;DHT22;5485;37.558;126.950;2023-03-11T06:48:56;21.30;1.00
10864;DHT22;5485;37.558;126.950;2023-03-11T06:51:23;21.40;1.00
10864;DHT22;5485;37.558;126.950;2023-03-11T06:53:52;21.30;1.00
10864;DHT22;5485;37.558;126.950;2023-03-11T06:56:21;21.30;1.00
10864;DHT22;5485;37.558;126.950;2023-03-11T06:58:48;21.20;1.00
10864;DHT22;5485;37.558;126.950;2023-03-11T07:01:17;21.10;1.00
10864;DHT22;5485;37.558;126.950;2023-03-11T07:03:48;21.10;1.00
10864;DHT22;5485;37.558;126.950;2023-03-11T07:06:20;21.00;1.00
10864;DHT22;5485;37.558;126.950;2023-03-11T07:08:49;20.80;1.00
10864;DHT22;5485;37.558;126.950;2023-03-11T07:11:21;20.70;1.00
10864;DHT22;5485;37.558;126.950;2023-03-11T07:13:49;20.40;1.00
10864;DHT22;5485;37.558;126.950;2023-03-11T07:16:18;20.50;1.00
10864;DHT22;5485;37.558;126.950;2023-03-11T07:18:47;20.40;1.00
10864;DHT22;5485;37.558;126.950;2023-03-11T07:21:16;20.10;1.00
10864;DHT22;5485;37.558;126.950;2023-03-11T07:23:44;20.10;1.00
10864;DHT22;5485;37.558;126.950;2023-03-11T07:26:12;19.90;1.00
10864;DHT22;5485;37.558;126.950;2023-03-11T07:28:45;19.90;1.00
10864;DHT22;5485;37.558;126.950;2023-03-11T07:31:29;19.90;1.00
10864;DHT22;5485;37.558;126.950;2023-03-11T07:33:57;19.90;1.00
10864;DHT22;5485;37.558;126.950;2023-03-11T07:36:25;19.80;1.00
10864;DHT22;5485;37.558;126.950;2023-03-11T07:38:58;19.80;1.00
10864;DHT22;5485;37.558;126.950;2023-03-11T07:41:25;19.80;1.00
10864;DHT22;5485;37.558;126.950;2023-03-11T07:43:58;19.50;1.00
10864;DHT22;5485;37.558;126.950;2023-03-11T07:46:26;19.40;1.00
10864;DHT22;5485;37.558;126.950;2023-03-11T07:48:53;19.30;1.00
10864;DHT22;5485;37.558;126.950;2023-03-11T07:51:23;19.20;1.00
10864;DHT22;5485;37.558;126.950;2023-03-11T07:53:52;19.10;1.00
10864;DHT22;5485;37.558;126.950;2023-03-11T07:56:20;19.00;1.00
10864;DHT22;5485;37.558;126.950;2023-03-11T07:58:50;18.80;1.00
10864;DHT22;5485;37.558;126.950;2023-03-11T08:01:24;18.80;1.00
10864;DHT22;5485;37.558;126.950;2023-03-11T08:03:52;18.70;1.00
10864;DHT22;5485;37.558;126.950;2023-03-11T08:06:26;18.50;1.00
10864;DHT22;5485;37.558;126.950;2023-03-11T08:08:54;18.40;1.00
10864;DHT22;5485;37.558;126.950;2023-03-11T08:11:21;18.40;1.00
10864;DHT22;5485;37.558;126.950;2023-03-11T08:13:48;18.30;1.00
10864;DHT22;5485;37.558;126.950;2023-03-11T08:16:18;18.20;1.00
10864;DHT22;5485;37.558;126.950;2023-03-11T08:18:49;18.30;1.00
10864;DHT22;5485;37.558;126.950;2023-03-11T08:21:22;18.20;1.00
10864;DHT22;5485;37.558;126.950;2023-03-11T08:23:49;18.10;1.00
10864;DHT22;5485;37.558;126.950;2023-03-11T08:26:21;18.10;1.00
10864;DHT22;5485;37.558;126.950;2023-03-11T08:28:48;18.00;1.00
10864;DHT22;5485;37.558;126.950;2023-03-11T08:31:20;17.90;1.00
10864;DHT22;5485;37.558;126.950;2023-03-11T08:33:50;17.90;1.00
10864;DHT22;5485;37.558;126.950;2023-03-11T08:36:20;17.80;1.00
10864;DHT22;5485;37.558;126.950;2023-03-11T08:38:47;17.80;1.00
10864;DHT22;5485;37.558;126.950;2023-03-11T08:41:15;17.70;1.00
10864;DHT22;5485;37.558;126.950;2023-03-11T08:43:42;17.60;1.00
10864;DHT22;5485;37.558;126.950;2023-03-11T08:48:46;17.40;1.00
10864;DHT22;5485;37.558;126.950;2023-03-11T08:51:14;17.40;1.00
10864;DHT22;5485;37.558;126.950;2023-03-11T08:53:42;17.30;1.00
10864;DHT22;5485;37.558;126.950;2023-03-11T08:56:09;17.20;1.00
10864;DHT22;5485;37.558;126.950;2023-03-11T08:58:36;17.10;1.00
10864;DHT22;5485;37.558;126.950;2023-03-11T09:01:05;17.00;1.00
10864;DHT22;5485;37.558;126.950;2023-03-11T09:03:35;16.90;1.00
10864;DHT22;5485;37.558;126.950;2023-03-11T09:06:04;16.80;1.00
10864;DHT22;5485;37.558;126.950;2023-03-11T09:08:31;16.80;1.00
10864;DHT22;5485;37.558;126.950;2023-03-11T09:10:58;16.70;1.00
10864;DHT22;5485;37.558;126.950;2023-03-11T09:13:25;16.60;1.00
10864;DHT22;5485;37.558;126.950;2023-03-11T09:15:52;16.60;1.00
10864;DHT22;5485;37.558;126.950;2023-03-11T09:18:19;16.60;1.00
10864;DHT22;5485;37.558;126.950;2023-03-11T09:20:46;16.50;1.00
10864;DHT22;5485;37.558;126.950;2023-03-11T09:23:15;16.40;1.00
10864;DHT22;5485;37.558;126.950;2023-03-11T09:25:43;16.30;1.00
10864;DHT22;5485;37.558;126.950;2023-03-11T09:28:10;16.30;1.00
10864;DHT22;5485;37.558;126.950;2023-03-11T09:30:37;16.20;1.00
10864;DHT22;5485;37.558;126.950;2023-03-11T09:33:04;16.10;1.00
10864;DHT22;5485;37.558;126.950;2023-03-11T09:35:33;16.00;1.00
10864;DHT22;5485;37.558;126.950;2023-03-11T09:38:00;15.90;1.00
10864;DHT22;5485;37.558;126.950;2023-03-11T09:40:40;15.80;1.00
10864;DHT22;5485;37.558;126.950;2023-03-11T09:43:30;15.80;1.00
10864;DHT22;5485;37.558;126.950;2023-03-11T09:48:59;15.60;1.00
10864;DHT22;5485;37.558;126.950;2023-03-11T09:51:34;15.50;1.00
10864;DHT22;5485;37.558;126.950;2023-03-11T09:54:09;15.40;1.00
10864;DHT22;5485;37.558;126.950;2023-03-11T09:56:37;15.40;1.00
10864;DHT22;5485;37.558;126.950;2023-03-11T09:59:08;15.40;1.00
10864;DHT22;5485;37.558;126.950;2023-03-11T10:01:45;15.40;1.00
10864;DHT22;5485;37.558;126.950;2023-03-11T10:04:35;15.40;1.00
10864;DHT22;5485;37.558;126.950;2023-03-11T10:07:13;15.30;1.00
10864;DHT22;5485;37.558;126.950;2023-03-11T10:09:55;15.30;1.00
10864;DHT22;5485;37.558;126.950;2023-03-11T10:12:43;15.30;1.00
10864;DHT22;5485;37.558;126.950;2023-03-11T10:24:09;15.00;1.00
10864;DHT22;5485;37.558;126.950;2023-03-11T10:27:00;15.00;1.00
10864;DHT22;5485;37.558;126.950;2023-03-11T10:29:37;15.00;1.00
10864;DHT22;5485;37.558;126.950;2023-03-11T10:32:16;15.00;1.00
10864;DHT22;5485;37.558;126.950;2023-03-11T10:34:58;14.90;1.00
10864;DHT22;5485;37.558;126.950;2023-03-11T10:37:26;14.90;1.00
10864;DHT22;5485;37.558;126.950;2023-03-11T10:40:00;14.90;1.00
10864;DHT22;5485;37.558;126.950;2023-03-11T10:42:32;14.80;1.00
10864;DHT22;5485;37.558;126.950;2023-03-11T10:44:59;14.80;1.00
10864;DHT22;5485;37.558;126.950;2023-03-11T10:47:27;14.70;1.00
10864;DHT22;5485;37.558;126.950;2023-03-11T10:49:54;14.70;1.00
10864;DHT22;5485;37.558;126.950;2023-03-11T10:52:21;14.70;1.00
10864;DHT22;5485;37.558;126.950;2023-03-11T10:54:59;14.60;1.00
10864;DHT22;5485;37.558;126.950;2023-03-11T10:57:33;14.60;1.00
10864;DHT22;5485;37.558;126.950;2023-03-11T11:00:05;14.60;1.00
10864;DHT22;5485;37.558;126.950;2023-03-11T11:02:53;14.50;1.00
10864;DHT22;5485;37.558;126.950;2023-03-11T11:05:30;14.50;1.00
10864;DHT22;5485;37.558;126.950;2023-03-11T11:08:14;14.50;1.00
10864;DHT22;5485;37.558;126.950;2023-03-11T11:10:57;14.50;1.00
10864;DHT22;5485;37.558;126.950;2023-03-11T11:13:30;14.40;1.00
10864;DHT22;5485;37.558;126.950;2023-03-11T11:16:04;14.40;1.00
10864;DHT22;5485;37.558;126.950;2023-03-11T11:19:10;14.40;1.00
10864;DHT22;5485;37.558;126.950;2023-03-11T11:21:37;14.40;1.00
10864;DHT22;5485;37.558;126.950;2023-03-11T11:24:25;14.30;1.00
10864;DHT22;5485;37.558;126.950;2023-03-11T11:29:37;14.20;1.00
10864;DHT22;5485;37.558;126.950;2023-03-11T11:34:42;14.30;1.00
10864;DHT22;5485;37.558;126.950;2023-03-11T11:37:18;14.20;1.00
10864;DHT22;5485;37.558;126.950;2023-03-11T11:39:55;14.20;1.00
10864;DHT22;5485;37.558;126.950;2023-03-11T11:42:25;14.10;1.00
10864;DHT22;5485;37.558;126.950;2023-03-11T11:47:45;14.10;1.00
10864;DHT22;5485;37.558;126.950;2023-03-11T11:50:23;14.10;1.00
10864;DHT22;5485;37.558;126.950;2023-03-11T11:53:10;14.10;1.00
10864;DHT22;5485;37.558;126.950;2023-03-11T11:55:43;14.00;1.00
10864;DHT22;5485;37.558;126.950;2023-03-11T11:58:12;14.00;1.00
10864;DHT22;5485;37.558;126.950;2023-03-11T12:06:43;13.90;1.00
10864;DHT22;5485;37.558;126.950;2023-03-11T12:09:29;13.90;1.00
10864;DHT22;5485;37.558;126.950;2023-03-11T12:17:36;13.80;1.00
10864;DHT22;5485;37.558;126.950;2023-03-11T12:25:29;13.70;1.00
10864;DHT22;5485;37.558;126.950;2023-03-11T12:30:42;13.70;1.00
10864;DHT22;5485;37.558;126.950;2023-03-11T12:33:35;13.60;1.00
10864;DHT22;5485;37.558;126.950;2023-03-11T12:36:07;13.60;1.00
10864;DHT22;5485;37.558;126.950;2023-03-11T12:38:47;13.50;1.00
10864;DHT22;5485;37.558;126.950;2023-03-11T12:41:28;13.50;1.00
10864;DHT22;5485;37.558;126.950;2023-03-11T12:44:21;13.40;1.00
10864;DHT22;5485;37.558;126.950;2023-03-11T12:46:59;13.40;1.00
10864;DHT22;5485;37.558;126.950;2023-03-11T12:49:27;13.40;1.00
10864;DHT22;5485;37.558;126.950;2023-03-11T12:54:47;13.40;1.00
10864;DHT22;5485;37.558;126.950;2023-03-11T12:57:27;13.40;1.00
10864;DHT22;5485;37.558;126.950;2023-03-11T13:08:52;13.30;1.00
10864;DHT22;5485;37.558;126.950;2023-03-11T13:16:44;13.20;1.00
10864;DHT22;5485;37.558;126.950;2023-03-11T13:19:34;13.20;1.00
10864;DHT22;5485;37.558;126.950;2023-03-11T13:22:09;13.20;1.00
10864;DHT22;5485;37.558;126.950;2023-03-11T13:24:51;13.20;1.00
10864;DHT22;5485;37.558;126.950;2023-03-11T13:27:40;13.20;1.00
10864;DHT22;5485;37.558;126.950;2023-03-11T13:30:18;13.20;1.00
10864;DHT22;5485;37.558;126.950;2023-03-11T13:35:41;13.10;1.00
10864;DHT22;5485;37.558;126.950;2023-03-11T13:41:01;13.10;1.00
10864;DHT22;5485;37.558;126.950;2023-03-11T13:43:28;13.10;1.00
10864;DHT22;5485;37.558;126.950;2023-03-11T13:48:43;13.00;1.00
10864;DHT22;5485;37.558;126.950;2023-03-11T13:51:41;13.00;1.00
10864;DHT22;5485;37.558;126.950;2023-03-11T13:56:42;12.90;1.00
10864;DHT22;5485;37.558;126.950;2023-03-11T13:59:23;12.90;1.00
10864;DHT22;5485;37.558;126.950;2023-03-11T14:02:17;12.90;1.00
10864;DHT22;5485;37.558;126.950;2023-03-11T14:04:50;12.90;1.00
10864;DHT22;5485;37.558;126.950;2023-03-11T14:07:30;12.90;1.00
10864;DHT22;5485;37.558;126.950;2023-03-11T14:10:15;12.90;1.00
10864;DHT22;5485;37.558;126.950;2023-03-11T14:12:42;12.90;1.00
10864;DHT22;5485;37.558;126.950;2023-03-11T14:15:15;12.90;1.00
10864;DHT22;5485;37.558;126.950;2023-03-11T14:17:43;12.90;1.00
10864;DHT22;5485;37.558;126.950;2023-03-11T14:20:18;12.80;1.00
10864;DHT22;5485;37.558;126.950;2023-03-11T14:22:51;12.80;1.00
10864;DHT22;5485;37.558;126.950;2023-03-11T14:25:24;12.80;1.00
10864;DHT22;5485;37.558;126.950;2023-03-11T14:27:54;12.80;1.00
10864;DHT22;5485;37.558;126.950;2023-03-11T14:30:28;12.80;1.00
10864;DHT22;5485;37.558;126.950;2023-03-11T14:33:19;12.80;1.00
10864;DHT22;5485;37.558;126.950;2023-03-11T14:35:55;12.70;1.00
10864;DHT22;5485;37.558;126.950;2023-03-11T14:38:25;12.70;1.00
10864;DHT22;5485;37.558;126.950;2023-03-11T14:40:54;12.70;1.00
10864;DHT22;5485;37.558;126.950;2023-03-11T14:43:23;12.70;1.00
10864;DHT22;5485;37.558;126.950;2023-03-11T14:45:51;12.60;1.00
10864;DHT22;5485;37.558;126.950;2023-03-11T14:48:21;12.70;1.00
10864;DHT22;5485;37.558;126.950;2023-03-11T14:50:56;12.70;1.00
10864;DHT22;5485;37.558;126.950;2023-03-11T14:53:37;12.70;1.00
10864;DHT22;5485;37.558;126.950;2023-03-11T14:56:18;12.70;1.00
10864;DHT22;5485;37.558;126.950;2023-03-11T14:58:59;12.70;1.00
10864;DHT22;5485;37.558;126.950;2023-03-11T15:01:38;12.70;1.00
10864;DHT22;5485;37.558;126.950;2023-03-11T15:06:41;12.90;1.00
10864;DHT22;5485;37.558;126.950;2023-03-11T15:09:15;12.90;1.00
10864;DHT22;5485;37.558;126.950;2023-03-11T15:11:49;13.00;1.00
10864;DHT22;5485;37.558;126.950;2023-03-11T15:16:50;13.00;1.00
10864;DHT22;5485;37.558;126.950;2023-03-11T15:21:55;12.80;1.00
10864;DHT22;5485;37.558;126.950;2023-03-11T15:24:30;12.80;1.00
10864;DHT22;5485;37.558;126.950;2023-03-11T15:29:28;12.70;1.00
10864;DHT22;5485;37.558;126.950;2023-03-11T15:31:55;12.60;1.00
10864;DHT22;5485;37.558;126.950;2023-03-11T15:34:29;12.70;1.00
10864;DHT22;5485;37.558;126.950;2023-03-11T15:36:58;12.60;1.00
10864;DHT22;5485;37.558;126.950;2023-03-11T15:47:17;12.30;1.00
10864;DHT22;5485;37.558;126.950;2023-03-11T15:49:45;12.20;1.00
10864;DHT22;5485;37.558;126.950;2023-03-11T15:52:13;12.10;1.00
10864;DHT22;5485;37.558;126.950;2023-03-11T15:54:40;12.10;1.00
10864;DHT22;5485;37.558;126.950;2023-03-11T15:57:09;12.00;1.00
10864;DHT22;5485;37.558;126.950;2023-03-11T15:59:41;12.00;1.00
10864;DHT22;5485;37.558;126.950;2023-03-11T16:02:22;12.00;1.00
10864;DHT22;5485;37.558;126.950;2023-03-11T16:04:53;11.90;1.00
10864;DHT22;5485;37.558;126.950;2023-03-11T16:07:20;11.90;1.00
10864;DHT22;5485;37.558;126.950;2023-03-11T16:09:47;11.90;1.00
10864;DHT22;5485;37.558;126.950;2023-03-11T16:12:22;11.80;1.00
10864;DHT22;5485;37.558;126.950;2023-03-11T16:14:50;11.80;1.00
10864;DHT22;5485;37.558;126.950;2023-03-11T16:17:17;11.80;1.00
10864;DHT22;5485;37.558;126.950;2023-03-11T16:19:48;11.80;1.00
10864;DHT22;5485;37.558;126.950;2023-03-11T16:22:19;11.80;1.00
10864;DHT22;5485;37.558;126.950;2023-03-11T16:24:48;11.70;1.00
10864;DHT22;5485;37.558;126.950;2023-03-11T16:27:17;11.60;1.00
10864;DHT22;5485;37.558;126.950;2023-03-11T16:29:44;11.60;1.00
10864;DHT22;5485;37.558;126.950;2023-03-11T16:32:12;11.50;1.00
10864;DHT22;5485;37.558;126.950;2023-03-11T16:34:39;11.50;1.00
10864;DHT22;5485;37.558;126.950;2023-03-11T16:37:06;11.30;1.00
10864;DHT22;5485;37.558;126.950;2023-03-11T16:39:34;11.40;1.00
10864;DHT22;5485;37.558;126.950;2023-03-11T16:42:01;11.30;1.00
10864;DHT22;5485;37.558;126.950;2023-03-11T16:44:28;11.40;1.00
10864;DHT22;5485;37.558;126.950;2023-03-11T16:46:55;11.30;1.00
10864;DHT22;5485;37.558;126.950;2023-03-11T16:49:22;11.20;1.00
10864;DHT22;5485;37.558;126.950;2023-03-11T16:51:48;11.10;1.00
10864;DHT22;5485;37.558;126.950;2023-03-11T16:54:15;11.10;1.00
10864;DHT22;5485;37.558;126.950;2023-03-11T16:56:42;11.10;1.00
10864;DHT22;5485;37.558;126.950;2023-03-11T16:59:12;11.20;1.00
10864;DHT22;5485;37.558;126.950;2023-03-11T17:01:39;11.20;1.00
10864;DHT22;5485;37.558;126.950;2023-03-11T17:04:06;11.30;1.00
10864;DHT22;5485;37.558;126.950;2023-03-11T17:06:33;11.30;1.00
10864;DHT22;5485;37.558;126.950;2023-03-11T17:09:00;11.30;1.00
10864;DHT22;5485;37.558;126.950;2023-03-11T17:11:27;11.20;1.00
10864;DHT22;5485;37.558;126.950;2023-03-11T17:13:56;11.20;1.00
10864;DHT22;5485;37.558;126.950;2023-03-11T17:16:23;11.20;1.00
10864;DHT22;5485;37.558;126.950;2023-03-11T17:18:50;11.20;1.00
10864;DHT22;5485;37.558;126.950;2023-03-11T17:21:17;11.20;1.00
10864;DHT22;5485;37.558;126.950;2023-03-11T17:23:44;11.20;1.00
10864;DHT22;5485;37.558;126.950;2023-03-11T17:26:14;11.20;1.00